KSMO/SMO METAR and TAF weather

Enter ICAO airport designator
Station Type Date Time Source
KSMO METAR 2019/09/21 20:51 UTC NOAA

KSMO 212051Z 24007KT 10SM CLR 25/17 A2984 RMK AO2 SLP103 T02500167 58022


Station Type Date Time Source
KSMO Decoded METAR 2019/09/21 20:51 UTC NOAA

SANTA MONICA MUNICIPAL AIRPORT , CA, United States (KSMO) 34-01N 118-27W 57M
Sep 21, 2019 - 04:51 PM EDT / 2019.09.21 2051 UTC
Wind: from the WSW (240 degrees) at 8 MPH (7 KT):0
Visibility: 10 mile(s):0
Sky conditions: clear
Temperature: 77.0 F (25.0 C)
Dew Point: 62.1 F (16.7 C)
Relative Humidity: 59%
Pressure (altimeter): 29.84 in. Hg (1010 hPa)
Pressure tendency: 0.06 inches (2.2 hPa) lower than three hours ago
ob: KSMO 212051Z 24007KT 10SM CLR 25/17 A2984 RMK AO2 SLP103 T02500167 58022
cycle: 21

Station Type Date Time Source
KSMO TAF 2019/09/21 18:41 UTC NOAA

TAF KSMO 211741Z 2118/2218 VRB03KT P6SM SKC
FM211900 24009KT P6SM SKC
FM220200 VRB03KT P6SM SKC
FM221600 23005KT P6SM SKC

Example: see airport list